sensor_id;sensor_type;location;lat;lon;timestamp;P1;durP1;ratioP1;P2;durP2;ratioP2
54388;SDS011;40975;50.390;8.640;2023-01-30T00:00:30;21.55;;;10.00;;
54388;SDS011;40975;50.390;8.640;2023-01-30T00:02:56;29.85;;;12.32;;
54388;SDS011;40975;50.390;8.640;2023-01-30T00:05:21;23.33;;;10.80;;
54388;SDS011;40975;50.390;8.640;2023-01-30T00:07:46;26.73;;;10.23;;
54388;SDS011;40975;50.390;8.640;2023-01-30T00:10:12;26.13;;;12.20;;
54388;SDS011;40975;50.390;8.640;2023-01-30T00:12:37;28.45;;;11.48;;
54388;SDS011;40975;50.390;8.640;2023-01-30T00:15:03;22.27;;;9.27;;
54388;SDS011;40975;50.390;8.640;2023-01-30T00:17:28;25.00;;;9.98;;
54388;SDS011;40975;50.390;8.640;2023-01-30T00:19:54;22.77;;;10.55;;
54388;SDS011;40975;50.390;8.640;2023-01-30T00:22:19;23.20;;;9.50;;
54388;SDS011;40975;50.390;8.640;2023-01-30T00:24:44;22.23;;;9.15;;
54388;SDS011;40975;50.390;8.640;2023-01-30T00:27:10;21.42;;;9.07;;
54388;SDS011;40975;50.390;8.640;2023-01-30T00:29:35;22.90;;;8.55;;
54388;SDS011;40975;50.390;8.640;2023-01-30T00:32:00;24.30;;;8.98;;
54388;SDS011;40975;50.390;8.640;2023-01-30T00:34:26;15.70;;;8.00;;
54388;SDS011;40975;50.390;8.640;2023-01-30T00:36:51;19.60;;;8.15;;
54388;SDS011;40975;50.390;8.640;2023-01-30T00:39:16;23.52;;;9.10;;
54388;SDS011;40975;50.390;8.640;2023-01-30T00:41:42;25.63;;;10.20;;
54388;SDS011;40975;50.390;8.640;2023-01-30T00:44:26;17.38;;;7.60;;
54388;SDS011;40975;50.390;8.640;2023-01-30T00:47:09;22.52;;;7.80;;
54388;SDS011;40975;50.390;8.640;2023-01-30T00:49:35;22.80;;;8.70;;
54388;SDS011;40975;50.390;8.640;2023-01-30T00:52:02;21.58;;;8.68;;
54388;SDS011;40975;50.390;8.640;2023-01-30T00:54:27;21.63;;;8.70;;
54388;SDS011;40975;50.390;8.640;2023-01-30T00:56:52;19.25;;;8.07;;
54388;SDS011;40975;50.390;8.640;2023-01-30T00:59:18;19.20;;;7.57;;
54388;SDS011;40975;50.390;8.640;2023-01-30T01:01:43;15.73;;;6.70;;
54388;SDS011;40975;50.390;8.640;2023-01-30T01:04:09;20.15;;;8.23;;
54388;SDS011;40975;50.390;8.640;2023-01-30T01:06:35;14.85;;;7.70;;
54388;SDS011;40975;50.390;8.640;2023-01-30T01:09:01;15.73;;;7.43;;
54388;SDS011;40975;50.390;8.640;2023-01-30T01:11:28;17.65;;;7.85;;
54388;SDS011;40975;50.390;8.640;2023-01-30T01:13:57;22.63;;;8.38;;
54388;SDS011;40975;50.390;8.640;2023-01-30T01:16:25;21.30;;;8.43;;
54388;SDS011;40975;50.390;8.640;2023-01-30T01:18:52;16.95;;;7.13;;
54388;SDS011;40975;50.390;8.640;2023-01-30T01:21:18;14.07;;;6.05;;
54388;SDS011;40975;50.390;8.640;2023-01-30T01:23:48;17.83;;;7.65;;
54388;SDS011;40975;50.390;8.640;2023-01-30T01:26:17;15.55;;;6.97;;
54388;SDS011;40975;50.390;8.640;2023-01-30T01:28:42;15.82;;;6.38;;
54388;SDS011;40975;50.390;8.640;2023-01-30T01:31:09;18.25;;;7.10;;
54388;SDS011;40975;50.390;8.640;2023-01-30T01:33:36;18.02;;;7.10;;
54388;SDS011;40975;50.390;8.640;2023-01-30T01:36:02;19.63;;;7.53;;
54388;SDS011;40975;50.390;8.640;2023-01-30T01:38:27;14.45;;;7.80;;
54388;SDS011;40975;50.390;8.640;2023-01-30T01:40:52;16.65;;;6.60;;
54388;SDS011;40975;50.390;8.640;2023-01-30T01:43:28;13.73;;;7.15;;
54388;SDS011;40975;50.390;8.640;2023-01-30T01:45:57;15.15;;;6.00;;
54388;SDS011;40975;50.390;8.640;2023-01-30T01:48:31;14.02;;;6.80;;
54388;SDS011;40975;50.390;8.640;2023-01-30T01:51:08;13.98;;;6.35;;
54388;SDS011;40975;50.390;8.640;2023-01-30T01:54:00;11.00;;;5.97;;
54388;SDS011;40975;50.390;8.640;2023-01-30T01:56:29;15.23;;;6.47;;
54388;SDS011;40975;50.390;8.640;2023-01-30T01:59:20;11.93;;;5.75;;
54388;SDS011;40975;50.390;8.640;2023-01-30T02:01:56;13.55;;;5.82;;
54388;SDS011;40975;50.390;8.640;2023-01-30T02:04:25;15.02;;;6.75;;
54388;SDS011;40975;50.390;8.640;2023-01-30T02:07:25;13.90;;;6.28;;
54388;SDS011;40975;50.390;8.640;2023-01-30T02:09:53;11.80;;;5.68;;
54388;SDS011;40975;50.390;8.640;2023-01-30T02:12:19;16.23;;;5.93;;
54388;SDS011;40975;50.390;8.640;2023-01-30T02:14:44;13.52;;;6.90;;
54388;SDS011;40975;50.390;8.640;2023-01-30T02:17:12;11.93;;;5.95;;
54388;SDS011;40975;50.390;8.640;2023-01-30T02:19:45;11.00;;;5.82;;
54388;SDS011;40975;50.390;8.640;2023-01-30T02:25:29;14.88;;;5.82;;
54388;SDS011;40975;50.390;8.640;2023-01-30T02:27:47;12.93;;;5.90;;
54388;SDS011;40975;50.390;8.640;2023-01-30T02:30:53;12.82;;;6.13;;
54388;SDS011;40975;50.390;8.640;2023-01-30T02:36:21;13.68;;;5.72;;
54388;SDS011;40975;50.390;8.640;2023-01-30T02:42:04;11.57;;;5.65;;
54388;SDS011;40975;50.390;8.640;2023-01-30T02:47:15;13.70;;;5.80;;
54388;SDS011;40975;50.390;8.640;2023-01-30T02:49:46;13.07;;;5.40;;
54388;SDS011;40975;50.390;8.640;2023-01-30T02:52:15;12.50;;;5.93;;
54388;SDS011;40975;50.390;8.640;2023-01-30T02:54:41;12.02;;;5.65;;
54388;SDS011;40975;50.390;8.640;2023-01-30T02:57:20;10.90;;;5.68;;
54388;SDS011;40975;50.390;8.640;2023-01-30T02:59:51;12.27;;;5.80;;
54388;SDS011;40975;50.390;8.640;2023-01-30T03:08:27;11.52;;;5.78;;
54388;SDS011;40975;50.390;8.640;2023-01-30T03:11:01;10.18;;;4.45;;
54388;SDS011;40975;50.390;8.640;2023-01-30T03:16:20;12.52;;;5.55;;
54388;SDS011;40975;50.390;8.640;2023-01-30T03:18:51;12.60;;;5.40;;
54388;SDS011;40975;50.390;8.640;2023-01-30T03:21:16;12.57;;;5.70;;
54388;SDS011;40975;50.390;8.640;2023-01-30T03:23:43;13.27;;;5.03;;
54388;SDS011;40975;50.390;8.640;2023-01-30T03:26:12;14.63;;;6.45;;
54388;SDS011;40975;50.390;8.640;2023-01-30T03:28:42;11.77;;;5.15;;
54388;SDS011;40975;50.390;8.640;2023-01-30T03:31:10;11.13;;;4.63;;
54388;SDS011;40975;50.390;8.640;2023-01-30T03:33:35;9.75;;;5.00;;
54388;SDS011;40975;50.390;8.640;2023-01-30T03:36:00;10.55;;;5.15;;
54388;SDS011;40975;50.390;8.640;2023-01-30T03:38:26;9.52;;;4.63;;
54388;SDS011;40975;50.390;8.640;2023-01-30T03:40:52;16.05;;;6.07;;
54388;SDS011;40975;50.390;8.640;2023-01-30T03:43:17;8.65;;;5.10;;
54388;SDS011;40975;50.390;8.640;2023-01-30T03:45:43;11.40;;;5.28;;
54388;SDS011;40975;50.390;8.640;2023-01-30T03:48:08;11.60;;;5.35;;
54388;SDS011;40975;50.390;8.640;2023-01-30T03:50:34;11.07;;;5.00;;
54388;SDS011;40975;50.390;8.640;2023-01-30T03:52:59;10.20;;;5.65;;
54388;SDS011;40975;50.390;8.640;2023-01-30T03:55:25;10.48;;;5.10;;
54388;SDS011;40975;50.390;8.640;2023-01-30T03:57:53;10.77;;;5.32;;
54388;SDS011;40975;50.390;8.640;2023-01-30T04:00:21;10.07;;;5.18;;
54388;SDS011;40975;50.390;8.640;2023-01-30T04:02:48;14.55;;;4.60;;
54388;SDS011;40975;50.390;8.640;2023-01-30T04:05:16;10.65;;;5.07;;
54388;SDS011;40975;50.390;8.640;2023-01-30T04:07:47;10.52;;;5.60;;
54388;SDS011;40975;50.390;8.640;2023-01-30T04:10:15;11.40;;;5.60;;
54388;SDS011;40975;50.390;8.640;2023-01-30T04:12:44;12.32;;;5.07;;
54388;SDS011;40975;50.390;8.640;2023-01-30T04:15:10;10.20;;;4.95;;
54388;SDS011;40975;50.390;8.640;2023-01-30T04:17:54;13.10;;;5.93;;
54388;SDS011;40975;50.390;8.640;2023-01-30T04:20:32;13.73;;;6.47;;
54388;SDS011;40975;50.390;8.640;2023-01-30T04:22:59;10.40;;;4.93;;
54388;SDS011;40975;50.390;8.640;2023-01-30T04:25:25;9.98;;;5.55;;
54388;SDS011;40975;50.390;8.640;2023-01-30T04:27:51;11.70;;;5.57;;
54388;SDS011;40975;50.390;8.640;2023-01-30T04:30:20;13.23;;;5.18;;
54388;SDS011;40975;50.390;8.640;2023-01-30T04:32:48;12.20;;;5.88;;
54388;SDS011;40975;50.390;8.640;2023-01-30T04:35:14;11.35;;;5.72;;
54388;SDS011;40975;50.390;8.640;2023-01-30T04:37:39;13.98;;;5.70;;
54388;SDS011;40975;50.390;8.640;2023-01-30T04:40:06;8.93;;;4.93;;
54388;SDS011;40975;50.390;8.640;2023-01-30T04:42:33;14.25;;;7.00;;
54388;SDS011;40975;50.390;8.640;2023-01-30T04:45:17;10.73;;;5.47;;
54388;SDS011;40975;50.390;8.640;2023-01-30T04:47:43;11.25;;;5.55;;
54388;SDS011;40975;50.390;8.640;2023-01-30T04:50:08;13.13;;;5.72;;
54388;SDS011;40975;50.390;8.640;2023-01-30T04:52:35;14.88;;;6.20;;
54388;SDS011;40975;50.390;8.640;2023-01-30T04:55:00;14.05;;;6.18;;
54388;SDS011;40975;50.390;8.640;2023-01-30T04:57:27;10.85;;;5.70;;
54388;SDS011;40975;50.390;8.640;2023-01-30T04:59:52;11.77;;;6.15;;
54388;SDS011;40975;50.390;8.640;2023-01-30T05:02:21;11.95;;;5.65;;
54388;SDS011;40975;50.390;8.640;2023-01-30T05:04:48;14.65;;;6.15;;
54388;SDS011;40975;50.390;8.640;2023-01-30T05:07:14;10.60;;;5.32;;
54388;SDS011;40975;50.390;8.640;2023-01-30T05:09:39;13.05;;;5.93;;
54388;SDS011;40975;50.390;8.640;2023-01-30T05:12:04;10.15;;;5.22;;
54388;SDS011;40975;50.390;8.640;2023-01-30T05:14:30;11.63;;;5.82;;
54388;SDS011;40975;50.390;8.640;2023-01-30T05:16:55;12.60;;;6.32;;
54388;SDS011;40975;50.390;8.640;2023-01-30T05:19:20;9.77;;;4.97;;
54388;SDS011;40975;50.390;8.640;2023-01-30T05:21:46;11.15;;;5.38;;
54388;SDS011;40975;50.390;8.640;2023-01-30T05:24:11;15.77;;;6.55;;
54388;SDS011;40975;50.390;8.640;2023-01-30T05:26:36;13.25;;;6.10;;
54388;SDS011;40975;50.390;8.640;2023-01-30T05:29:04;13.10;;;6.28;;
54388;SDS011;40975;50.390;8.640;2023-01-30T05:31:30;12.90;;;6.03;;
54388;SDS011;40975;50.390;8.640;2023-01-30T05:33:55;10.93;;;5.25;;
54388;SDS011;40975;50.390;8.640;2023-01-30T05:36:21;11.20;;;5.72;;
54388;SDS011;40975;50.390;8.640;2023-01-30T05:38:47;11.23;;;6.20;;
54388;SDS011;40975;50.390;8.640;2023-01-30T05:41:13;13.88;;;6.70;;
54388;SDS011;40975;50.390;8.640;2023-01-30T05:43:39;12.43;;;5.32;;
54388;SDS011;40975;50.390;8.640;2023-01-30T05:46:05;15.52;;;6.40;;
54388;SDS011;40975;50.390;8.640;2023-01-30T05:48:31;11.73;;;6.10;;
54388;SDS011;40975;50.390;8.640;2023-01-30T05:50:57;12.85;;;5.72;;
54388;SDS011;40975;50.390;8.640;2023-01-30T05:53:25;11.75;;;5.80;;
54388;SDS011;40975;50.390;8.640;2023-01-30T05:55:57;12.65;;;5.65;;
54388;SDS011;40975;50.390;8.640;2023-01-30T05:58:23;13.20;;;5.28;;
54388;SDS011;40975;50.390;8.640;2023-01-30T06:00:49;10.90;;;5.00;;
54388;SDS011;40975;50.390;8.640;2023-01-30T06:03:14;12.55;;;5.40;;
54388;SDS011;40975;50.390;8.640;2023-01-30T06:05:40;12.20;;;5.43;;
54388;SDS011;40975;50.390;8.640;2023-01-30T06:08:05;11.55;;;5.53;;
54388;SDS011;40975;50.390;8.640;2023-01-30T06:10:32;15.05;;;6.53;;
54388;SDS011;40975;50.390;8.640;2023-01-30T06:12:57;9.40;;;5.68;;
54388;SDS011;40975;50.390;8.640;2023-01-30T06:15:23;12.98;;;5.03;;
54388;SDS011;40975;50.390;8.640;2023-01-30T06:17:48;11.70;;;5.13;;
54388;SDS011;40975;50.390;8.640;2023-01-30T06:20:13;11.73;;;5.75;;
54388;SDS011;40975;50.390;8.640;2023-01-30T06:22:39;14.43;;;6.00;;
54388;SDS011;40975;50.390;8.640;2023-01-30T06:25:04;11.48;;;6.30;;
54388;SDS011;40975;50.390;8.640;2023-01-30T06:27:30;11.60;;;5.32;;
54388;SDS011;40975;50.390;8.640;2023-01-30T06:29:55;10.63;;;5.32;;
54388;SDS011;40975;50.390;8.640;2023-01-30T06:32:20;10.60;;;5.25;;
54388;SDS011;40975;50.390;8.640;2023-01-30T06:34:46;9.98;;;4.82;;
54388;SDS011;40975;50.390;8.640;2023-01-30T06:37:11;11.25;;;5.07;;
54388;SDS011;40975;50.390;8.640;2023-01-30T06:39:36;9.45;;;4.35;;
54388;SDS011;40975;50.390;8.640;2023-01-30T06:42:02;10.77;;;5.10;;
54388;SDS011;40975;50.390;8.640;2023-01-30T06:44:27;10.55;;;5.00;;
54388;SDS011;40975;50.390;8.640;2023-01-30T06:46:52;10.07;;;4.65;;
54388;SDS011;40975;50.390;8.640;2023-01-30T06:49:18;7.68;;;4.50;;
54388;SDS011;40975;50.390;8.640;2023-01-30T06:51:43;9.38;;;4.95;;
54388;SDS011;40975;50.390;8.640;2023-01-30T06:54:08;8.88;;;4.63;;
54388;SDS011;40975;50.390;8.640;2023-01-30T06:56:34;10.88;;;4.80;;
54388;SDS011;40975;50.390;8.640;2023-01-30T06:58:59;11.70;;;5.03;;
54388;SDS011;40975;50.390;8.640;2023-01-30T07:01:24;8.68;;;4.45;;
54388;SDS011;40975;50.390;8.640;2023-01-30T07:03:50;8.98;;;4.78;;
54388;SDS011;40975;50.390;8.640;2023-01-30T07:06:15;9.02;;;5.05;;
54388;SDS011;40975;50.390;8.640;2023-01-30T07:08:40;9.23;;;4.63;;
54388;SDS011;40975;50.390;8.640;2023-01-30T07:11:06;6.93;;;4.15;;
54388;SDS011;40975;50.390;8.640;2023-01-30T07:13:31;9.32;;;5.22;;
54388;SDS011;40975;50.390;8.640;2023-01-30T07:15:56;11.50;;;4.63;;
54388;SDS011;40975;50.390;8.640;2023-01-30T07:18:22;8.00;;;4.78;;
54388;SDS011;40975;50.390;8.640;2023-01-30T07:20:47;9.88;;;4.43;;
54388;SDS011;40975;50.390;8.640;2023-01-30T07:23:13;8.38;;;4.47;;
54388;SDS011;40975;50.390;8.640;2023-01-30T07:25:39;7.90;;;4.55;;
54388;SDS011;40975;50.390;8.640;2023-01-30T07:28:05;8.18;;;4.03;;
54388;SDS011;40975;50.390;8.640;2023-01-30T07:30:31;7.43;;;4.53;;
54388;SDS011;40975;50.390;8.640;2023-01-30T07:33:00;10.40;;;4.55;;
54388;SDS011;40975;50.390;8.640;2023-01-30T07:35:27;8.90;;;4.15;;
54388;SDS011;40975;50.390;8.640;2023-01-30T07:37:56;8.52;;;4.32;;
54388;SDS011;40975;50.390;8.640;2023-01-30T07:40:22;7.20;;;4.28;;
54388;SDS011;40975;50.390;8.640;2023-01-30T07:45:46;7.82;;;3.42;;
54388;SDS011;40975;50.390;8.640;2023-01-30T07:48:12;8.77;;;3.97;;
54388;SDS011;40975;50.390;8.640;2023-01-30T07:50:39;8.38;;;3.50;;
54388;SDS011;40975;50.390;8.640;2023-01-30T07:53:06;6.45;;;3.83;;
54388;SDS011;40975;50.390;8.640;2023-01-30T07:55:33;8.05;;;4.07;;
54388;SDS011;40975;50.390;8.640;2023-01-30T07:57:58;6.72;;;3.50;;
54388;SDS011;40975;50.390;8.640;2023-01-30T08:00:24;4.72;;;3.13;;
54388;SDS011;40975;50.390;8.640;2023-01-30T08:02:49;6.60;;;3.17;;
54388;SDS011;40975;50.390;8.640;2023-01-30T08:05:15;5.80;;;3.17;;
54388;SDS011;40975;50.390;8.640;2023-01-30T08:07:40;4.68;;;3.08;;
54388;SDS011;40975;50.390;8.640;2023-01-30T08:10:06;7.13;;;3.13;;
54388;SDS011;40975;50.390;8.640;2023-01-30T08:12:32;4.30;;;2.85;;
54388;SDS011;40975;50.390;8.640;2023-01-30T08:14:57;5.22;;;3.53;;
54388;SDS011;40975;50.390;8.640;2023-01-30T08:17:22;6.15;;;2.92;;
54388;SDS011;40975;50.390;8.640;2023-01-30T08:19:48;5.43;;;2.72;;
54388;SDS011;40975;50.390;8.640;2023-01-30T08:22:13;4.50;;;2.70;;
54388;SDS011;40975;50.390;8.640;2023-01-30T08:24:38;8.80;;;3.00;;
54388;SDS011;40975;50.390;8.640;2023-01-30T08:27:04;4.35;;;2.60;;
54388;SDS011;40975;50.390;8.640;2023-01-30T08:29:29;4.53;;;2.22;;
54388;SDS011;40975;50.390;8.640;2023-01-30T08:31:56;5.35;;;2.53;;
54388;SDS011;40975;50.390;8.640;2023-01-30T08:34:25;4.38;;;2.33;;
54388;SDS011;40975;50.390;8.640;2023-01-30T08:36:50;3.25;;;1.88;;
54388;SDS011;40975;50.390;8.640;2023-01-30T08:39:16;4.68;;;2.65;;
54388;SDS011;40975;50.390;8.640;2023-01-30T08:41:41;3.78;;;2.50;;
54388;SDS011;40975;50.390;8.640;2023-01-30T08:44:10;4.18;;;2.33;;
54388;SDS011;40975;50.390;8.640;2023-01-30T08:46:37;2.40;;;1.70;;
54388;SDS011;40975;50.390;8.640;2023-01-30T08:49:03;4.60;;;2.13;;
54388;SDS011;40975;50.390;8.640;2023-01-30T08:51:29;3.92;;;1.95;;
54388;SDS011;40975;50.390;8.640;2023-01-30T08:53:54;3.97;;;2.53;;
54388;SDS011;40975;50.390;8.640;2023-01-30T08:56:20;2.45;;;1.50;;
54388;SDS011;40975;50.390;8.640;2023-01-30T08:58:45;2.20;;;1.52;;
54388;SDS011;40975;50.390;8.640;2023-01-30T09:01:11;2.70;;;2.10;;
54388;SDS011;40975;50.390;8.640;2023-01-30T09:03:36;3.95;;;2.35;;
54388;SDS011;40975;50.390;8.640;2023-01-30T09:06:02;3.00;;;1.85;;
54388;SDS011;40975;50.390;8.640;2023-01-30T09:08:27;2.25;;;1.30;;
54388;SDS011;40975;50.390;8.640;2023-01-30T09:10:56;2.75;;;1.50;;
54388;SDS011;40975;50.390;8.640;2023-01-30T09:13:23;2.15;;;1.48;;
54388;SDS011;40975;50.390;8.640;2023-01-30T09:15:49;2.50;;;1.70;;
54388;SDS011;40975;50.390;8.640;2023-01-30T09:18:14;2.03;;;1.58;;
54388;SDS011;40975;50.390;8.640;2023-01-30T09:20:39;2.58;;;1.17;;
54388;SDS011;40975;50.390;8.640;2023-01-30T09:23:05;4.07;;;1.17;;
54388;SDS011;40975;50.390;8.640;2023-01-30T09:25:30;1.40;;;1.08;;
54388;SDS011;40975;50.390;8.640;2023-01-30T09:27:55;1.83;;;1.38;;
54388;SDS011;40975;50.390;8.640;2023-01-30T09:30:21;1.48;;;1.10;;
54388;SDS011;40975;50.390;8.640;2023-01-30T09:32:46;2.05;;;1.25;;
54388;SDS011;40975;50.390;8.640;2023-01-30T09:35:13;2.78;;;1.38;;
54388;SDS011;40975;50.390;8.640;2023-01-30T09:37:45;1.73;;;1.15;;
54388;SDS011;40975;50.390;8.640;2023-01-30T09:40:13;0.70;;;0.70;;
54388;SDS011;40975;50.390;8.640;2023-01-30T09:42:53;1.63;;;0.93;;
54388;SDS011;40975;50.390;8.640;2023-01-30T09:48:21;2.13;;;1.10;;
54388;SDS011;40975;50.390;8.640;2023-01-30T09:53:49;1.42;;;0.75;;
54388;SDS011;40975;50.390;8.640;2023-01-30T09:56:17;1.00;;;0.88;;
54388;SDS011;40975;50.390;8.640;2023-01-30T10:01:20;0.65;;;0.60;;
54388;SDS011;40975;50.390;8.640;2023-01-30T10:03:54;0.75;;;0.60;;
54388;SDS011;40975;50.390;8.640;2023-01-30T10:06:28;0.85;;;0.70;;
54388;SDS011;40975;50.390;8.640;2023-01-30T10:09:06;0.57;;;0.57;;
54388;SDS011;40975;50.390;8.640;2023-01-30T10:11:42;1.08;;;0.90;;
54388;SDS011;40975;50.390;8.640;2023-01-30T10:14:17;1.25;;;0.82;;
54388;SDS011;40975;50.390;8.640;2023-01-30T10:22:45;1.00;;;0.80;;
54388;SDS011;40975;50.390;8.640;2023-01-30T10:28:05;1.73;;;0.60;;
54388;SDS011;40975;50.390;8.640;2023-01-30T10:30:40;1.08;;;0.82;;
54388;SDS011;40975;50.390;8.640;2023-01-30T10:33:24;1.67;;;0.95;;
54388;SDS011;40975;50.390;8.640;2023-01-30T10:35:57;1.10;;;0.85;;
54388;SDS011;40975;50.390;8.640;2023-01-30T10:38:29;0.70;;;0.70;;
54388;SDS011;40975;50.390;8.640;2023-01-30T10:41:06;1.58;;;0.90;;
54388;SDS011;40975;50.390;8.640;2023-01-30T10:43:40;0.60;;;0.60;;
54388;SDS011;40975;50.390;8.640;2023-01-30T10:48:59;1.17;;;0.77;;
54388;SDS011;40975;50.390;8.640;2023-01-30T10:51:34;1.60;;;0.70;;
54388;SDS011;40975;50.390;8.640;2023-01-30T11:02:31;0.98;;;0.88;;
54388;SDS011;40975;50.390;8.640;2023-01-30T11:07:49;1.08;;;0.75;;
54388;SDS011;40975;50.390;8.640;2023-01-30T11:10:20;1.75;;;0.95;;
54388;SDS011;40975;50.390;8.640;2023-01-30T11:12:54;1.70;;;0.73;;
54388;SDS011;40975;50.390;8.640;2023-01-30T11:15:22;3.33;;;0.70;;
54388;SDS011;40975;50.390;8.640;2023-01-30T11:17:49;2.17;;;0.90;;
54388;SDS011;40975;50.390;8.640;2023-01-30T11:25:14;0.82;;;0.68;;
54388;SDS011;40975;50.390;8.640;2023-01-30T11:27:42;1.42;;;1.00;;
54388;SDS011;40975;50.390;8.640;2023-01-30T11:32:40;2.63;;;1.00;;
54388;SDS011;40975;50.390;8.640;2023-01-30T11:37:34;4.40;;;1.00;;
54388;SDS011;40975;50.390;8.640;2023-01-30T11:42:45;1.08;;;0.93;;
54388;SDS011;40975;50.390;8.640;2023-01-30T11:45:16;3.10;;;1.10;;
54388;SDS011;40975;50.390;8.640;2023-01-30T11:47:50;3.17;;;1.10;;
54388;SDS011;40975;50.390;8.640;2023-01-30T11:50:19;5.25;;;1.55;;
54388;SDS011;40975;50.390;8.640;2023-01-30T11:52:47;3.92;;;1.13;;
54388;SDS011;40975;50.390;8.640;2023-01-30T11:55:14;2.35;;;1.10;;
54388;SDS011;40975;50.390;8.640;2023-01-30T11:57:43;0.98;;;0.80;;
54388;SDS011;40975;50.390;8.640;2023-01-30T12:00:21;1.65;;;1.08;;
54388;SDS011;40975;50.390;8.640;2023-01-30T12:02:50;2.65;;;1.00;;
54388;SDS011;40975;50.390;8.640;2023-01-30T12:05:33;2.25;;;1.10;;
54388;SDS011;40975;50.390;8.640;2023-01-30T12:08:20;2.67;;;0.93;;
54388;SDS011;40975;50.390;8.640;2023-01-30T12:10:48;1.10;;;1.00;;
54388;SDS011;40975;50.390;8.640;2023-01-30T12:15:48;3.00;;;1.00;;
54388;SDS011;40975;50.390;8.640;2023-01-30T12:18:24;1.95;;;0.90;;
54388;SDS011;40975;50.390;8.640;2023-01-30T12:23:31;2.60;;;1.20;;
54388;SDS011;40975;50.390;8.640;2023-01-30T12:26:12;2.55;;;0.75;;
54388;SDS011;40975;50.390;8.640;2023-01-30T12:28:45;1.25;;;1.10;;
54388;SDS011;40975;50.390;8.640;2023-01-30T12:31:18;1.60;;;1.20;;
54388;SDS011;40975;50.390;8.640;2023-01-30T12:33:50;1.75;;;1.05;;
54388;SDS011;40975;50.390;8.640;2023-01-30T12:36:27;3.90;;;1.00;;
54388;SDS011;40975;50.390;8.640;2023-01-30T12:41:50;3.15;;;1.05;;
54388;SDS011;40975;50.390;8.640;2023-01-30T12:47:31;1.67;;;1.02;;
54388;SDS011;40975;50.390;8.640;2023-01-30T12:55:41;2.80;;;1.48;;
54388;SDS011;40975;50.390;8.640;2023-01-30T13:01:07;2.35;;;1.05;;
54388;SDS011;40975;50.390;8.640;2023-01-30T13:09:30;4.55;;;1.33;;
54388;SDS011;40975;50.390;8.640;2023-01-30T13:18:03;3.38;;;1.10;;
54388;SDS011;40975;50.390;8.640;2023-01-30T13:23:11;1.98;;;1.08;;
54388;SDS011;40975;50.390;8.640;2023-01-30T13:26:07;6.32;;;1.10;;
54388;SDS011;40975;50.390;8.640;2023-01-30T13:29:19;7.05;;;1.40;;
54388;SDS011;40975;50.390;8.640;2023-01-30T13:31:29;9.00;;;1.73;;
54388;SDS011;40975;50.390;8.640;2023-01-30T13:34:04;2.22;;;1.10;;
54388;SDS011;40975;50.390;8.640;2023-01-30T13:36:45;6.38;;;1.35;;
54388;SDS011;40975;50.390;8.640;2023-01-30T13:39:16;10.95;;;1.67;;
54388;SDS011;40975;50.390;8.640;2023-01-30T13:41:49;3.63;;;0.68;;
54388;SDS011;40975;50.390;8.640;2023-01-30T13:46:47;2.38;;;1.30;;
54388;SDS011;40975;50.390;8.640;2023-01-30T13:51:48;5.30;;;1.48;;
54388;SDS011;40975;50.390;8.640;2023-01-30T14:09:35;3.90;;;1.50;;
54388;SDS011;40975;50.390;8.640;2023-01-30T14:12:01;3.50;;;1.50;;
54388;SDS011;40975;50.390;8.640;2023-01-30T14:17:12;6.82;;;2.35;;
54388;SDS011;40975;50.390;8.640;2023-01-30T14:19:44;4.93;;;1.58;;
54388;SDS011;40975;50.390;8.640;2023-01-30T14:22:17;6.57;;;1.95;;
54388;SDS011;40975;50.390;8.640;2023-01-30T14:27:50;5.38;;;1.52;;
54388;SDS011;40975;50.390;8.640;2023-01-30T14:32:54;3.25;;;1.45;;
54388;SDS011;40975;50.390;8.640;2023-01-30T14:35:21;5.80;;;1.25;;
54388;SDS011;40975;50.390;8.640;2023-01-30T14:37:49;4.40;;;1.40;;
54388;SDS011;40975;50.390;8.640;2023-01-30T14:43:25;7.93;;;1.92;;
54388;SDS011;40975;50.390;8.640;2023-01-30T14:45:53;6.55;;;1.58;;
54388;SDS011;40975;50.390;8.640;2023-01-30T14:51:59;7.70;;;1.30;;
54388;SDS011;40975;50.390;8.640;2023-01-30T14:56:39;3.58;;;1.20;;
54388;SDS011;40975;50.390;8.640;2023-01-30T14:59:22;7.78;;;1.75;;
54388;SDS011;40975;50.390;8.640;2023-01-30T15:01:52;4.20;;;1.05;;
54388;SDS011;40975;50.390;8.640;2023-01-30T15:04:18;2.97;;;1.30;;
54388;SDS011;40975;50.390;8.640;2023-01-30T15:06:45;3.40;;;1.15;;
54388;SDS011;40975;50.390;8.640;2023-01-30T15:09:15;6.47;;;0.93;;
54388;SDS011;40975;50.390;8.640;2023-01-30T15:11:41;5.60;;;1.40;;
54388;SDS011;40975;50.390;8.640;2023-01-30T15:14:26;5.03;;;0.85;;
54388;SDS011;40975;50.390;8.640;2023-01-30T15:17:01;4.82;;;1.10;;
54388;SDS011;40975;50.390;8.640;2023-01-30T15:33:45;6.00;;;1.42;;
54388;SDS011;40975;50.390;8.640;2023-01-30T15:36:16;4.80;;;0.95;;
54388;SDS011;40975;50.390;8.640;2023-01-30T15:41:28;2.13;;;1.30;;
54388;SDS011;40975;50.390;8.640;2023-01-30T15:44:02;7.75;;;1.63;;
54388;SDS011;40975;50.390;8.640;2023-01-30T15:46:47;8.02;;;1.50;;
54388;SDS011;40975;50.390;8.640;2023-01-30T15:49:46;2.60;;;1.20;;
54388;SDS011;40975;50.390;8.640;2023-01-30T15:52:38;10.48;;;1.63;;
54388;SDS011;40975;50.390;8.640;2023-01-30T15:55:15;11.85;;;1.90;;
54388;SDS011;40975;50.390;8.640;2023-01-30T15:57:44;4.45;;;1.17;;
54388;SDS011;40975;50.390;8.640;2023-01-30T16:00:47;10.80;;;2.33;;
54388;SDS011;40975;50.390;8.640;2023-01-30T16:03:10;7.97;;;1.45;;
54388;SDS011;40975;50.390;8.640;2023-01-30T16:05:45;8.00;;;1.48;;
54388;SDS011;40975;50.390;8.640;2023-01-30T16:08:25;4.78;;;1.45;;
54388;SDS011;40975;50.390;8.640;2023-01-30T16:11:01;4.95;;;1.50;;
54388;SDS011;40975;50.390;8.640;2023-01-30T16:13:27;4.32;;;1.30;;
54388;SDS011;40975;50.390;8.640;2023-01-30T16:16:00;1.23;;;0.68;;
54388;SDS011;40975;50.390;8.640;2023-01-30T16:18:40;6.50;;;1.70;;
54388;SDS011;40975;50.390;8.640;2023-01-30T16:21:16;9.75;;;1.65;;
54388;SDS011;40975;50.390;8.640;2023-01-30T16:26:18;15.05;;;1.92;;
54388;SDS011;40975;50.390;8.640;2023-01-30T16:28:46;6.50;;;2.10;;
54388;SDS011;40975;50.390;8.640;2023-01-30T16:31:13;8.00;;;1.38;;
54388;SDS011;40975;50.390;8.640;2023-01-30T16:33:39;10.40;;;0.98;;
54388;SDS011;40975;50.390;8.640;2023-01-30T16:36:05;5.97;;;1.50;;
54388;SDS011;40975;50.390;8.640;2023-01-30T16:38:51;7.13;;;1.35;;
54388;SDS011;40975;50.390;8.640;2023-01-30T16:41:37;5.90;;;1.05;;
54388;SDS011;40975;50.390;8.640;2023-01-30T16:44:19;5.20;;;1.05;;
54388;SDS011;40975;50.390;8.640;2023-01-30T16:46:47;6.05;;;1.15;;
54388;SDS011;40975;50.390;8.640;2023-01-30T16:49:19;5.65;;;1.60;;
54388;SDS011;40975;50.390;8.640;2023-01-30T16:52:04;6.78;;;1.27;;
54388;SDS011;40975;50.390;8.640;2023-01-30T16:54:53;11.80;;;1.73;;
54388;SDS011;40975;50.390;8.640;2023-01-30T16:59:59;5.10;;;1.45;;
54388;SDS011;40975;50.390;8.640;2023-01-30T17:02:32;4.63;;;1.40;;
54388;SDS011;40975;50.390;8.640;2023-01-30T17:05:10;8.18;;;1.55;;
54388;SDS011;40975;50.390;8.640;2023-01-30T17:07:40;5.78;;;1.60;;
54388;SDS011;40975;50.390;8.640;2023-01-30T17:10:12;6.05;;;1.40;;
54388;SDS011;40975;50.390;8.640;2023-01-30T17:18:50;7.38;;;1.30;;
54388;SDS011;40975;50.390;8.640;2023-01-30T17:21:18;6.63;;;1.65;;
54388;SDS011;40975;50.390;8.640;2023-01-30T17:23:46;8.18;;;1.63;;
54388;SDS011;40975;50.390;8.640;2023-01-30T17:26:14;7.82;;;1.52;;
54388;SDS011;40975;50.390;8.640;2023-01-30T17:28:40;8.88;;;1.55;;
54388;SDS011;40975;50.390;8.640;2023-01-30T17:31:09;10.75;;;1.92;;
54388;SDS011;40975;50.390;8.640;2023-01-30T17:33:36;7.00;;;1.30;;
54388;SDS011;40975;50.390;8.640;2023-01-30T17:36:02;5.07;;;1.52;;
54388;SDS011;40975;50.390;8.640;2023-01-30T17:38:29;5.07;;;1.42;;
54388;SDS011;40975;50.390;8.640;2023-01-30T17:40:55;7.25;;;1.60;;